Loreto, Mexico

3:45 PM MDT on September 02, 2015 (GMT -0600)
Loreto International | | Change Station
CLOSE
Current Station
Airport
Location: Loreto,
Elevation: 23 ft
Nearby Weather Stations

Elev 23 ft 26.02 °N, 111.35 °W | Updated 55 minutes ago

Overcast
Overcast
93 °F
Feels Like 114 °F
N
6
Wind Variable Wind from SE

Today
High -- | Low -- °F
--% Chance of Precip.
Yesterday
High -- | Low -- °F
Precip. -- in
7:05 AM 7:43 PM
Waning Gibbous, 77% visible
Pressure 29.81 in
Visibility 8.0 miles
Clouds Few 5000 ft
Overcast 21000 ft
Heat Index 114 °F
Dew Point 81 °F
Humidity 67%
Rainfall 0.00 in
Snow Depth Not available.
UV 3 out of 12
Pollen Not available.
Air Quality Not available.
Flu Activity Not available.
METAR MMLT 022050Z 14005KT 8SM FEW050 OVC210 34/27 A2981 RMK SLP095 8/103
Pressure 29.81 in
Visibility 8.0 miles
Clouds Few 5000 ft
Overcast 21000 ft
Heat Index 114 °F
Dew Point 81 °F
Humidity 67%
Rainfall 0.00 in
Snow Depth Not available.
UV 3 out of 12
Pollen Not available.
Air Quality Not available.
Flu Activity Not available.
METAR MMLT 022050Z 14005KT 8SM FEW050 OVC210 34/27 A2981 RMK SLP095 8/103

10-Day Weather Forecast

×

Almanac

Astronomy

Sep. 02, 2015 Rise Set
Actual Time
Civil Twilight
Nautical Twilight
Astronomical Twilight
Moon
Length of Visible Light
Length of Day
Tomorrow will be .
, % of the Moon is Illuminated

Today's Extremes

Country Highs Country Lows

Community

WunderPhotos

Upload Photos

1,851,818 photos uploaded!

WunderBlogs® & News

Nearby

Air Quality

  Air Quality AQ Index Pollutant
Not available.

Snow Depth

Station Depth Elevation

Earthquake Activity

City Distance Mag. Time & Date
Minimum magnitude displayed is 2.5.

Coastal Water Temperatures

Place Temperature

Stations

Nearby Weather Stations

Station Location Temp. Windchill Dew Point Humidity Wind Precip. Elev Updated Type